Flight Track Log - Related Links

Times and Time Zones

All times are in EDT time to prevent confusion due to time zone crossing. See the N89TC flight status page for this flight to view local times or setup timezone preferences in your user account.

Time Position Orientation Groundspeed Altitude Reporting Facility
EDT Latitude Longitude Course Direction KTS MPH feet Rate Location/Type
Sun 12:07:36 PM 34.0167 -84.6500 360° North 185 213 2,200  Level Atlanta TRACON
Sun 12:08:36 PM 34.0667 -84.6500 360° North 206 237 4,100 1,550 Climbing Atlanta TRACON
Sun 12:09:36 PM 34.0500 -84.6000 112° Southeast 214 246 5,300 900 Climbing Atlanta TRACON
Sun 12:10:36 PM 33.9833 -84.5500 148° Southeast 214 246 5,900 300 Climbing Atlanta TRACON
Sun 12:11:36 PM 33.9333 -84.5167 151° Southeast 231 266 5,900 50 Level Atlanta TRACON
Sun 12:12:36 PM 33.8833 -84.4833 151° Southeast 226 260 6,000  Climbing Atlanta TRACON
Sun 12:13:36 PM 33.8167 -84.4833 180° South 221 254 5,900 -50 Descending Atlanta TRACON
Sun 12:14:36 PM 33.7500 -84.4833 180° South 218 251 5,900  Level Atlanta TRACON
Sun 12:15:36 PM 33.7000 -84.4667 165° South 215 247 5,900  Level Atlanta TRACON
Sun 12:16:36 PM 33.6333 -84.4667 180° South 226 260 5,900  Level Atlanta TRACON
Sun 12:17:36 PM 33.5833 -84.4500 164° South 221 254 5,900 550 Level Atlanta TRACON
Sun 12:18:36 PM 33.5167 -84.4333 168° South 219 252 7,000 1,459 Climbing Atlanta TRACON
Sun 12:20:04 PM 33.4264 -84.4097 168° South 231 266 9,500 1,784 Climbing Atlanta Center
Sun 12:21:04 PM 33.3597 -84.3894 166° South 238 274 11,400 2,200 Climbing Atlanta Center
Sun 12:22:04 PM 33.2867 -84.3694 167° South 254 292 13,900 2,400 Climbing Atlanta Center
Sun 12:23:04 PM 33.2072 -84.3442 165° South 273 314 16,200 2,100 Climbing Atlanta Center
Sun 12:24:04 PM 33.1197 -84.3117 163° South 301 346 18,100 1,800 Climbing Atlanta Center
Sun 12:25:04 PM 33.0300 -84.2667 157° South 335 386 19,800 1,900 Climbing Atlanta Center
Sun 12:26:04 PM 32.9319 -84.2194 158° South 356 410 21,900 1,950 Climbing Atlanta Center
Sun 12:27:04 PM 32.8297 -84.1822 163° South 375 432 23,700 1,750 Climbing Atlanta Center
Sun 12:28:04 PM 32.7297 -84.1353 158° South 380 437 25,400 1,650 Climbing Atlanta Center
Sun 12:29:04 PM 32.6253 -84.0906 160° South 385 443 27,000 1,550 Climbing Atlanta Center
Sun 12:30:04 PM 32.5211 -84.0461 160° South 390 449 28,500 1,550 Climbing Atlanta Center
Sun 12:31:04 PM 32.4167 -83.9944 157° South 397 457 30,100 1,347 Climbing Atlanta Center
Sun 12:33:20 PM 32.1689 -83.8792 159° South 413 475 32,900 1,224 Climbing Jacksonville Center
Sun 12:34:20 PM 32.0567 -83.8314 160° South 413 475 34,100 1,100 Climbing Jacksonville Center
Sun 12:35:20 PM 31.9464 -83.7861 161° South 413 475 35,100 950 Climbing Jacksonville Center
Sun 12:36:20 PM 31.8483 -83.7436 160° South 421 484 36,000 1,000 Climbing Jacksonville Center
Sun 12:37:20 PM 31.7361 -83.6914 158° South 427 491 37,100 1,000 Climbing Jacksonville Center
Sun 12:38:20 PM 31.6256 -83.6417 159° South 427 491 38,000 850 Climbing Jacksonville Center
Sun 12:39:20 PM 31.5133 -83.5894 158° South 434 499 38,800 450 Climbing Jacksonville Center
Sun 12:40:20 PM 31.4050 -83.5400 159° South 429 494 38,900 100 Climbing Jacksonville Center
Sun 12:41:20 PM 31.2925 -83.4906 159° South 424 488 39,000 50 Climbing Jacksonville Center
Sun 12:42:20 PM 31.1839 -83.4439 160° South 424 488 39,000  Level Jacksonville Center
Sun 12:43:20 PM 31.0714 -83.3994 161° South 424 488 39,000  Level Jacksonville Center
Sun 12:44:20 PM 30.9547 -83.3528 161° South 429 494 39,000  Level Jacksonville Center
Sun 12:45:20 PM 30.8381 -83.3039 160° South 434 499 39,000  Level Jacksonville Center
Sun 12:46:20 PM 30.7233 -83.2575 161° South 439 505 39,000  Level Jacksonville Center
Sun 12:47:20 PM 30.6086 -83.1992 156° South 444 511 39,000 50 Level Jacksonville Center
Sun 12:48:20 PM 30.5022 -83.1336 152° Southeast 449 517 39,100  Climbing Jacksonville Center
Sun 12:49:20 PM 30.3853 -83.0803 159° South 449 517 39,000 -50 Descending Jacksonville Center
Sun 12:50:20 PM 30.2706 -83.0225 156° South 449 517 39,000  Level Jacksonville Center
Sun 12:51:20 PM 30.1539 -82.9669 158° South 449 517 39,000  Level Jacksonville Center
Sun 12:52:20 PM 30.0411 -82.9094 156° South 449 517 39,000  Level Jacksonville Center
Sun 12:53:20 PM 29.9261 -82.8542 157° South 449 517 39,000  Level Jacksonville Center
Sun 12:54:20 PM 29.8092 -82.7992 158° South 454 522 39,000  Level Jacksonville Center
Sun 12:55:20 PM 29.6964 -82.7444 157° South 454 522 39,000  Level Jacksonville Center
Sun 12:56:20 PM 29.5817 -82.6872 157° South 454 522 39,000  Level Jacksonville Center
Sun 12:57:20 PM 29.4667 -82.6278 156° South 454 522 39,000  Level Jacksonville Center
Sun 12:58:20 PM 29.3497 -82.5708 157° South 454 522 39,000  Level Jacksonville Center
Sun 12:59:20 PM 29.2367 -82.5167 157° South 454 522 39,000  Level Jacksonville Center
Sun 01:00:20 PM 29.1092 -82.4553 157° South 454 522 39,000 -50 Level Jacksonville Center
Sun 01:01:20 PM 28.9839 -82.4533 179° South 439 505 38,900  Descending Jacksonville Center
Sun 01:02:20 PM 28.8608 -82.4586 182° South 444 511 39,000 50 Climbing Jacksonville Center
Sun 01:03:20 PM 28.7356 -82.4664 183° South 444 511 39,000  Level Jacksonville Center
Sun 01:04:20 PM 28.6272 -82.4764 185° South 444 511 39,000  Level Jacksonville Center
Sun 01:06:14 PM 28.3811 -82.4878 182° South 448 516 39,000  Level Miami Center
Sun 01:07:16 PM 28.2706 -82.4936 183° South 451 519 39,000  Level Miami Center
Sun 01:08:18 PM 28.1197 -82.5025 183° South 453 521 39,000  Level Miami Center
Sun 01:09:20 PM 27.9972 -82.5103 183° South 448 516 39,000  Level Miami Center
Sun 01:10:22 PM 27.8708 -82.4800 168° South 463 533 39,000  Level Miami Center
Sun 01:11:25 PM 27.7283 -82.4269 162° South 470 541 39,000  Level Miami Center
Sun 01:12:27 PM 27.5964 -82.3794 162° South 475 547 39,000  Level Miami Center
Sun 01:13:29 PM 27.4647 -82.3314 162° South 475 547 39,000 -48 Level Miami Center
Sun 01:14:31 PM 27.3431 -82.2503 149° Southeast 494 568 38,900 -672 Descending Miami Center
Sun 01:15:34 PM 27.2314 -82.1450 140° Southeast 501 577 37,600 -1,632 Descending Miami Center
Sun 01:16:36 PM 27.1189 -82.0467 142° Southeast 494 568 35,500 -2,419 Descending Miami Center
Sun 01:17:38 PM 27.0108 -81.9519 142° Southeast 472 543 32,600 -2,806 Descending Miami Center
Sun 01:18:40 PM 26.9283 -81.8819 143° Southeast 446 513 29,700 -2,880 Descending Miami Center
Sun 01:19:43 PM 26.8128 -81.7864 144° Southeast 432 497 26,600 -2,736 Descending Miami Center
Sun 01:20:45 PM 26.7278 -81.6947 136° Southeast 426 490 24,000 -2,323 Descending Miami Center
Sun 01:21:47 PM 26.6453 -81.5939 132° Southeast 413 475 21,800 -2,226 Descending Miami Center
Sun 01:22:49 PM 26.5650 -81.5006 134° Southeast 401 461 19,400 -2,112 Descending Miami Center
Sun 01:23:52 PM 26.4856 -81.4150 136° Southeast 371 427 17,400 -1,968 Descending Miami Center
Sun 01:24:54 PM 26.4186 -81.3400 135° Southeast 343 395 15,300 -2,129 Descending Miami Center
Sun 01:25:56 PM 26.3503 -81.2644 135° Southeast 327 376 13,000 -2,032 Descending Miami Center
Sun 01:26:58 PM 26.2933 -81.1997 134° Southeast 296 341 11,100 -1,884 Descending Miami Center
Sun 01:27:22 PM 26.2678 -81.1681 132° Southeast 288 331 10,300 -1,619 Descending Miami Center
Sun 01:28:01 PM 26.2378 -81.1306 132° Southeast 284 327 9,400 -1,248 Descending Miami Center
Sun 01:29:03 PM 26.1906 -81.0714 132° Southeast 259 298 8,200 -677 Descending Miami Center
Sun 01:30:05 PM 26.1500 -81.0186 131° Southeast 243 280 8,000 -97 Descending Miami Center
Sun 01:31:07 PM 26.1131 -80.9653 128° Southeast 221 254 8,000 -336 Level Miami Center
Sun 01:32:10 PM 26.0839 -80.8944 115° Southeast 215 247 7,300 -484 Descending Miami Center
Sun 01:33:11 PM 26.0817 -80.8228 92° East 219 252 7,000 -148 Descending Miami Center
Sun 01:34:12 PM 26.0819 -80.7556 90° East 218 251 7,000  Level Miami Center
Sun 01:35:13 PM 26.0822 -80.6906 90° East 212 244 7,000  Level Miami Center
Sun 01:36:14 PM 26.0825 -80.6211 90° East 211 243 7,000  Level Miami Center
Sun 01:37:15 PM 26.0786 -80.5533 94° East 217 250 7,000  Level Miami Center
Sun 01:38:23 PM 26.0789 -80.4794 90° East 216 249 7,000 -195 Level Miami Center
Sun 01:39:18 PM 26.0789 -80.4189 90° East 219 252 6,600 -387 Descending Miami Center
Sun 01:40:27 PM 26.1108 -80.3653 56° Northeast 202 232 6,200 -443 Descending Miami Center
Sun 01:41:20 PM 26.1536 -80.3947 328° Northwest 201 231 5,700 -571 Descending Miami Center
Sun 01:41:30 PM 26.1556 -80.3942 14° North 197 227 5,600 -689 Descending Miami Center
Sun 01:42:21 PM 26.1475 -80.4569 262° West 203 234 5,000 -581 Descending Miami Center
Sun 01:42:32 PM 26.1483 -80.4569 360° North 212 244 5,000  Level Miami Center
Sun 01:43:22 PM 26.1378 -80.5142 258° West 181 208 5,000  Level Miami Center
Sun 01:43:34 PM 26.1356 -80.5233 255° West 187 215 5,000  Level Miami Center
Sun 01:44:23 PM 26.1119 -80.5561 231° Southwest 181 208 5,000  Level Miami Center
Sun 01:44:36 PM 26.1025 -80.5561 180° South 180 207 5,000  Level Miami Center
Sun 01:45:24 PM 26.0806 -80.5233 127° Southeast 165 190 5,000  Level Miami Center
Sun 01:45:39 PM 26.0794 -80.5144 98° East 168 193 5,000 -590 Level Miami Center
Sun 01:46:25 PM 26.0800 -80.4678 89° East 176 203 4,400 -677 Descending Miami Center
Sun 01:46:41 PM 26.0797 -80.4611 93° East 169 194 4,300 -590 Descending Miami Center
Sun 01:47:26 PM 26.0792 -80.4142 91° East 176 203 3,800 -484 Descending Miami Center
Sun 01:47:43 PM 26.0797 -80.4069 85° East 173 199 3,800 -484 Level Miami Center
Sun 01:48:28 PM 26.0783 -80.3608 92° East 169 194 3,300 -581 Descending Miami Center
Sun 01:48:45 PM 26.0797 -80.3539 77° East 173 199 3,200 -689 Descending Miami Center
Sun 01:49:29 PM 26.0778 -80.3053 93° East 172 198 2,600 -762 Descending Miami Center
Sun 01:49:48 PM 26.0783 -80.2903 88° East 173 199 2,400 -787 Descending Miami Center
Sun 01:50:30 PM 26.0769 -80.2494 92° East 173 199 1,800 -774 Descending Miami Center
Sun 01:50:50 PM 26.0772 -80.2358 89° East 173 199 1,600 -982 Descending Miami Center
Sun 01:51:25 PM 26.0756 -80.2053 93° East 153 176 900 -1,065 Descending Miami Center
Sun 01:51:52 PM 26.0767 -80.1864 86° East 155 178 500 15,573 Descending Miami Center
Sun 01:52:54 PM 26.0761 -80.1542 91° East 124 143 24,000 22,742 Climbing Miami Center
Sun 01:54:00 PM 26.0667 -80.1500 94° East  Level FlightAware Approximate

Login

Don't have an account? Register now (free) for customized features, flight alerts, and more!